createdAt,value
2023-05-11T00:00:25.072Z,7.10
2023-05-11T00:03:13.070Z,8.10
2023-05-11T00:06:01.987Z,7.15
2023-05-11T00:08:49.757Z,8.00
2023-05-11T00:11:37.392Z,7.78
2023-05-11T00:14:25.196Z,7.43
2023-05-11T00:17:12.893Z,8.20
2023-05-11T00:20:00.289Z,7.97
2023-05-11T00:22:48.957Z,7.95
2023-05-11T00:25:36.656Z,7.13
2023-05-11T00:28:24.184Z,6.75
2023-05-11T00:31:11.665Z,7.05
2023-05-11T00:33:59.131Z,7.28
2023-05-11T00:36:47.157Z,7.05
2023-05-11T00:39:40.305Z,7.13
2023-05-11T00:42:27.725Z,7.32
2023-05-11T00:45:16.408Z,8.20
2023-05-11T00:48:03.955Z,7.78
2023-05-11T00:50:51.655Z,7.38
2023-05-11T00:53:39.180Z,7.50
2023-05-11T00:56:28.125Z,7.78
2023-05-11T00:59:15.666Z,7.32
2023-05-11T01:02:03.323Z,7.43
2023-05-11T01:04:52.695Z,7.68
2023-05-11T01:07:42.675Z,7.13
2023-05-11T01:10:34.879Z,7.55
2023-05-11T01:13:28.491Z,7.15
2023-05-11T01:16:20.830Z,7.45
2023-05-11T01:19:14.400Z,7.25
2023-05-11T01:22:04.208Z,7.20
2023-05-11T01:24:56.986Z,7.50
2023-05-11T01:27:53.647Z,6.80
2023-05-11T01:30:45.003Z,7.25
2023-05-11T01:33:33.152Z,7.20
2023-05-11T01:36:21.723Z,7.00
2023-05-11T01:39:11.456Z,7.00
2023-05-11T01:42:00.259Z,8.13
2023-05-11T01:44:49.988Z,7.93
2023-05-11T01:47:40.259Z,7.95
2023-05-11T01:50:27.971Z,8.00
2023-05-11T01:53:16.748Z,8.13
2023-05-11T01:56:05.497Z,7.07
2023-05-11T01:58:53.358Z,8.20
2023-05-11T02:01:41.294Z,7.53
2023-05-11T02:04:31.250Z,8.00
2023-05-11T02:07:19.600Z,7.28
2023-05-11T02:10:08.078Z,7.13
2023-05-11T02:12:56.322Z,7.60
2023-05-11T02:15:45.532Z,7.57
2023-05-11T02:18:33.673Z,8.25
2023-05-11T02:21:22.910Z,8.18
2023-05-11T02:24:10.576Z,7.45
2023-05-11T02:26:58.871Z,8.13
2023-05-11T02:29:46.603Z,7.90
2023-05-11T02:32:36.766Z,8.60
2023-05-11T02:35:25.799Z,7.85
2023-05-11T02:38:16.169Z,8.20
2023-05-11T02:41:05.991Z,8.10
2023-05-11T02:43:54.368Z,9.00
2023-05-11T02:46:43.900Z,9.27
2023-05-11T02:49:34.551Z,9.35
2023-05-11T02:52:24.212Z,10.15
2023-05-11T02:55:13.630Z,10.32
2023-05-11T02:58:01.742Z,9.63
2023-05-11T03:00:50.217Z,9.88
2023-05-11T03:03:37.899Z,8.32
2023-05-11T03:06:25.695Z,8.10
2023-05-11T03:09:13.584Z,9.07
2023-05-11T03:12:07.423Z,7.55
2023-05-11T03:14:57.225Z,8.55
2023-05-11T03:17:45.468Z,7.90
2023-05-11T03:20:35.977Z,7.22
2023-05-11T03:23:24.097Z,7.55
2023-05-11T03:26:12.424Z,7.55
2023-05-11T03:29:03.135Z,7.40
2023-05-11T03:31:51.471Z,7.55
2023-05-11T03:34:40.815Z,7.82
2023-05-11T03:37:31.554Z,7.60
2023-05-11T03:40:21.380Z,7.07
2023-05-11T03:43:13.247Z,7.25
2023-05-11T03:46:02.607Z,7.22
2023-05-11T03:48:51.095Z,7.78
2023-05-11T03:51:42.600Z,7.60
2023-05-11T03:54:30.104Z,7.70
2023-05-11T03:57:17.684Z,7.63
2023-05-11T04:00:07.262Z,7.65
2023-05-11T04:03:06.621Z,7.25
2023-05-11T04:05:54.534Z,7.18
2023-05-11T04:08:41.885Z,7.07
2023-05-11T04:11:30.385Z,6.95
2023-05-11T04:14:18.141Z,6.43
2023-05-11T04:17:05.805Z,6.60
2023-05-11T04:19:54.603Z,6.57
2023-05-11T04:22:42.319Z,6.28
2023-05-11T04:25:29.672Z,5.70
2023-05-11T04:28:17.654Z,5.93
2023-05-11T04:31:04.877Z,6.53
2023-05-11T04:33:52.271Z,5.57
2023-05-11T04:36:42.044Z,6.40
2023-05-11T04:39:29.747Z,5.63
2023-05-11T04:42:17.117Z,5.22
2023-05-11T04:45:08.991Z,5.60
2023-05-11T04:47:56.601Z,5.80
2023-05-11T04:50:46.241Z,4.95
2023-05-11T04:53:35.450Z,5.53
2023-05-11T04:56:23.454Z,5.20
2023-05-11T04:59:11.524Z,5.10
2023-05-11T05:01:58.995Z,4.63
2023-05-11T05:04:46.411Z,5.22
2023-05-11T05:07:33.830Z,5.25
2023-05-11T05:10:23.123Z,5.47
2023-05-11T05:13:10.888Z,5.32
2023-05-11T05:15:58.421Z,5.45
2023-05-11T05:18:46.669Z,5.18
2023-05-11T05:21:35.758Z,5.68
2023-05-11T05:24:23.472Z,5.40
2023-05-11T05:27:12.580Z,5.20
2023-05-11T05:30:01.373Z,5.15
2023-05-11T05:32:49.681Z,4.80
2023-05-11T05:35:37.059Z,5.22
2023-05-11T05:38:25.729Z,4.60
2023-05-11T05:41:14.262Z,4.95
2023-05-11T05:44:05.529Z,4.97
2023-05-11T05:46:53.078Z,4.57
2023-05-11T05:49:41.384Z,4.05
2023-05-11T05:52:28.758Z,4.22
2023-05-11T05:55:16.621Z,4.05
2023-05-11T05:58:05.937Z,3.92
2023-05-11T06:00:54.775Z,3.45
2023-05-11T06:03:42.474Z,3.58
2023-05-11T06:06:29.920Z,3.28
2023-05-11T06:09:17.249Z,3.72
2023-05-11T06:12:05.076Z,3.28
2023-05-11T06:14:54.715Z,3.65
2023-05-11T06:17:43.564Z,3.47
2023-05-11T06:20:33.542Z,3.47
2023-05-11T06:23:21.802Z,3.22
2023-05-11T06:26:09.624Z,3.22
2023-05-11T06:28:57.755Z,3.10
2023-05-11T06:31:45.688Z,3.25
2023-05-11T06:34:34.741Z,3.38
2023-05-11T06:37:23.422Z,3.08
2023-05-11T06:40:11.948Z,3.22
2023-05-11T06:43:00.232Z,3.13
2023-05-11T06:46:02.149Z,3.10
2023-05-11T06:48:50.277Z,3.13
2023-05-11T06:51:39.401Z,3.33
2023-05-11T06:54:27.249Z,2.58
2023-05-11T06:57:14.854Z,3.20
2023-05-11T07:00:02.158Z,3.22
2023-05-11T07:02:50.254Z,2.92
2023-05-11T07:05:37.781Z,2.55
2023-05-11T07:08:26.781Z,2.83
2023-05-11T07:11:15.394Z,2.85
2023-05-11T07:14:02.707Z,2.63
2023-05-11T07:16:53.029Z,2.90
2023-05-11T07:19:40.826Z,2.80
2023-05-11T07:22:28.190Z,2.22
2023-05-11T07:25:16.979Z,2.58
2023-05-11T07:28:04.575Z,2.63
2023-05-11T07:30:52.375Z,2.72
2023-05-11T07:33:40.740Z,2.65
2023-05-11T07:36:28.204Z,2.50
2023-05-11T07:39:17.081Z,2.35
2023-05-11T07:42:06.092Z,2.90
2023-05-11T07:44:53.592Z,2.70
2023-05-11T07:47:41.296Z,2.80
2023-05-11T07:50:28.693Z,2.30
2023-05-11T07:53:16.176Z,2.70
2023-05-11T07:56:03.987Z,2.70
2023-05-11T07:58:52.797Z,2.40
2023-05-11T08:01:40.487Z,2.45
2023-05-11T08:04:30.187Z,2.28
2023-05-11T08:07:17.808Z,2.40
2023-05-11T08:10:05.298Z,2.80
2023-05-11T08:12:53.188Z,2.55
2023-05-11T08:15:41.954Z,2.40
2023-05-11T08:18:29.668Z,2.50
2023-05-11T08:21:17.546Z,2.55
2023-05-11T08:24:05.423Z,2.22
2023-05-11T08:26:52.886Z,2.50
2023-05-11T08:29:40.649Z,2.35
2023-05-11T08:32:30.328Z,2.38
2023-05-11T08:35:18.010Z,2.75
2023-05-11T08:38:05.740Z,2.47
2023-05-11T08:40:52.997Z,2.33
2023-05-11T08:43:41.393Z,2.20
2023-05-11T08:46:30.592Z,2.10
2023-05-11T08:49:19.248Z,2.15
2023-05-11T08:52:07.992Z,2.25
2023-05-11T08:54:55.611Z,2.00
2023-05-11T08:57:46.724Z,2.60
2023-05-11T09:00:34.535Z,2.40
2023-05-11T09:03:22.492Z,2.65
2023-05-11T09:06:12.335Z,2.20
2023-05-11T09:08:59.731Z,1.98
2023-05-11T09:11:47.544Z,2.35
2023-05-11T09:14:35.473Z,2.08
2023-05-11T09:17:25.730Z,2.15
2023-05-11T09:20:13.801Z,1.90
2023-05-11T09:23:02.689Z,2.00
2023-05-11T09:25:50.710Z,2.38
2023-05-11T09:31:37.346Z,2.20
2023-05-11T09:34:25.374Z,2.42
2023-05-11T09:37:17.884Z,2.42
2023-05-11T09:40:26.246Z,2.35
2023-05-11T09:43:18.427Z,2.05
2023-05-11T09:46:07.915Z,2.28
2023-05-11T09:49:00.498Z,2.30
2023-05-11T09:51:47.995Z,1.88
2023-05-11T09:54:42.539Z,2.00
2023-05-11T09:57:32.943Z,2.38
2023-05-11T10:00:21.051Z,2.13
2023-05-11T10:03:09.341Z,2.05
2023-05-11T10:06:00.716Z,2.10
2023-05-11T10:08:48.109Z,1.83
2023-05-11T10:11:35.965Z,2.05
2023-05-11T10:14:26.465Z,2.03
2023-05-11T10:17:14.646Z,1.83
2023-05-11T10:20:04.175Z,1.80
2023-05-11T10:22:53.402Z,1.65
2023-05-11T10:25:40.921Z,1.80
2023-05-11T10:28:30.923Z,2.00
2023-05-11T10:31:23.967Z,1.92
2023-05-11T10:34:12.392Z,1.80
2023-05-11T10:37:01.730Z,1.88
2023-05-11T10:39:50.618Z,2.08
2023-05-11T10:43:09.589Z,1.70
2023-05-11T10:46:00.913Z,1.90
2023-05-11T10:49:09.987Z,1.88
2023-05-11T10:52:05.960Z,1.90
2023-05-11T10:55:04.515Z,1.95
2023-05-11T10:57:58.722Z,1.98
2023-05-11T11:01:10.197Z,2.00
2023-05-11T11:04:02.850Z,1.95
2023-05-11T11:07:05.099Z,2.17
2023-05-11T11:09:53.781Z,1.77
2023-05-11T11:12:41.283Z,2.00
2023-05-11T11:15:48.761Z,1.70
2023-05-11T11:18:36.454Z,1.80
2023-05-11T11:21:42.717Z,1.50
2023-05-11T11:24:47.898Z,1.85
2023-05-11T11:27:50.126Z,2.30
2023-05-11T11:30:37.606Z,1.80
2023-05-11T11:33:33.458Z,1.80
2023-05-11T11:36:40.873Z,1.70
2023-05-11T11:39:28.914Z,1.75
2023-05-11T11:42:18.321Z,1.80
2023-05-11T11:45:24.680Z,1.90
2023-05-11T11:48:13.576Z,1.48
2023-05-11T11:51:08.408Z,2.00
2023-05-11T11:54:01.003Z,1.42
2023-05-11T11:56:49.832Z,1.35
2023-05-11T11:59:48.760Z,1.50
2023-05-11T12:02:36.527Z,1.42
2023-05-11T12:05:26.318Z,1.50
2023-05-11T12:08:15.159Z,1.70
2023-05-11T12:11:03.028Z,1.70
2023-05-11T12:13:50.832Z,1.55
2023-05-11T12:16:40.192Z,1.70
2023-05-11T12:19:28.260Z,1.63
2023-05-11T12:22:16.942Z,1.52
2023-05-11T12:25:07.034Z,1.50
2023-05-11T12:27:58.001Z,1.52
2023-05-11T12:30:58.262Z,1.48
2023-05-11T12:33:49.093Z,1.45
2023-05-11T12:36:37.015Z,1.48
2023-05-11T12:39:25.879Z,1.58
2023-05-11T12:42:20.152Z,1.60
2023-05-11T12:45:08.095Z,1.60
2023-05-11T12:47:56.858Z,1.50
2023-05-11T12:50:46.393Z,1.50
2023-05-11T12:53:36.932Z,1.73
2023-05-11T12:56:24.581Z,1.52
2023-05-11T12:59:25.122Z,1.50
2023-05-11T13:02:14.774Z,1.45
2023-05-11T13:05:11.806Z,1.48
2023-05-11T13:08:01.222Z,1.42
2023-05-11T13:10:48.766Z,1.50
2023-05-11T13:13:37.474Z,1.52
2023-05-11T13:16:26.928Z,1.50
2023-05-11T13:19:14.517Z,1.67
2023-05-11T13:22:02.094Z,1.70
2023-05-11T13:24:51.396Z,1.38
2023-05-11T13:27:38.852Z,1.50
2023-05-11T13:30:26.272Z,1.50
2023-05-11T13:33:13.882Z,1.50
2023-05-11T13:36:01.473Z,1.40
2023-05-11T13:38:49.014Z,1.40
2023-05-11T13:41:37.857Z,1.60
2023-05-11T13:44:25.427Z,1.60
2023-05-11T13:47:12.713Z,1.67
2023-05-11T13:49:59.978Z,1.95
2023-05-11T13:52:47.224Z,1.30
2023-05-11T14:00:28.158Z,1.65
2023-05-11T14:03:15.925Z,1.70
2023-05-11T14:06:03.520Z,1.60
2023-05-11T14:08:50.967Z,1.48
2023-05-11T14:11:39.615Z,1.52
2023-05-11T14:14:27.264Z,1.65
2023-05-11T14:17:16.245Z,1.50
2023-05-11T14:20:04.426Z,1.88
2023-05-11T14:22:52.272Z,1.50
2023-05-11T14:25:39.613Z,1.55
2023-05-11T14:28:27.082Z,1.70
2023-05-11T14:31:14.775Z,1.67
2023-05-11T14:34:03.407Z,1.52
2023-05-11T14:36:50.917Z,1.55
2023-05-11T14:39:38.315Z,1.70
2023-05-11T14:42:25.762Z,1.35
2023-05-11T14:45:13.669Z,1.65
2023-05-11T14:48:01.309Z,2.00
2023-05-11T14:50:50.022Z,1.83
2023-05-11T14:53:37.820Z,1.45
2023-05-11T14:56:26.360Z,1.40
2023-05-11T14:59:13.692Z,1.50
2023-05-11T15:02:01.124Z,1.52
2023-05-11T15:04:48.918Z,1.80
2023-05-11T15:07:39.094Z,1.75
2023-05-11T15:10:26.738Z,1.58
2023-05-11T15:13:15.292Z,1.60
2023-05-11T15:16:02.740Z,1.30
2023-05-11T15:18:50.100Z,1.90
2023-05-11T15:21:37.932Z,1.50
2023-05-11T15:24:26.731Z,1.50
2023-05-11T15:27:14.476Z,1.60
2023-05-11T15:30:03.802Z,1.48
2023-05-11T15:32:53.521Z,1.50
2023-05-11T15:35:40.927Z,2.03
2023-05-11T15:38:28.402Z,1.50
2023-05-11T15:41:17.478Z,1.60
2023-05-11T15:44:05.449Z,1.58
2023-05-11T15:46:53.089Z,1.60
2023-05-11T15:49:40.433Z,1.65
2023-05-11T15:52:27.772Z,1.35
2023-05-11T15:55:15.302Z,1.60
2023-05-11T15:58:07.836Z,1.50
2023-05-11T16:00:57.333Z,1.77
2023-05-11T16:03:46.147Z,2.00
2023-05-11T16:06:34.848Z,1.60
2023-05-11T16:09:22.685Z,1.75
2023-05-11T16:12:10.251Z,1.55
2023-05-11T16:14:59.068Z,1.83
2023-05-11T16:17:47.382Z,1.80
2023-05-11T16:20:35.121Z,1.77
2023-05-11T16:23:23.256Z,1.67
2023-05-11T16:26:10.827Z,1.67
2023-05-11T16:28:58.169Z,1.50
2023-05-11T16:31:47.271Z,1.70
2023-05-11T16:34:35.207Z,1.75
2023-05-11T16:37:22.705Z,1.80
2023-05-11T16:40:10.826Z,1.58
2023-05-11T16:42:58.291Z,1.88
2023-05-11T16:45:45.721Z,1.83
2023-05-11T16:48:34.855Z,1.70
2023-05-11T16:51:22.490Z,1.52
2023-05-11T16:54:10.335Z,1.63
2023-05-11T16:56:58.179Z,1.67
2023-05-11T16:59:45.498Z,1.65
2023-05-11T17:02:33.035Z,1.65
2023-05-11T17:05:23.028Z,1.60
2023-05-11T17:08:10.683Z,1.58
2023-05-11T17:10:58.057Z,1.90
2023-05-11T17:13:45.391Z,1.42
2023-05-11T17:16:32.967Z,1.70
2023-05-11T17:19:20.505Z,1.73
2023-05-11T17:22:09.802Z,1.83
2023-05-11T17:24:57.307Z,1.60
2023-05-11T17:27:44.887Z,1.60
2023-05-11T17:30:55.991Z,1.52
2023-05-11T17:33:40.368Z,1.60
2023-05-11T17:36:29.961Z,1.63
2023-05-11T17:39:19.939Z,1.85
2023-05-11T17:42:08.680Z,2.05
2023-05-11T17:44:57.025Z,1.50
2023-05-11T17:47:44.713Z,1.52
2023-05-11T17:50:33.300Z,1.60
2023-05-11T17:53:20.706Z,1.80
2023-05-11T17:56:11.670Z,1.52
2023-05-11T17:58:59.428Z,1.60
2023-05-11T18:01:46.791Z,1.70
2023-05-11T18:04:34.145Z,1.92
2023-05-11T18:07:21.681Z,1.85
2023-05-11T18:10:10.880Z,1.90
2023-05-11T18:12:59.442Z,2.00
2023-05-11T18:15:47.277Z,2.00
2023-05-11T18:18:34.821Z,1.63
2023-05-11T18:21:22.316Z,2.00
2023-05-11T18:24:10.571Z,1.80
2023-05-11T18:26:58.600Z,1.60
2023-05-11T18:29:47.572Z,2.30
2023-05-11T18:32:35.342Z,1.98
2023-05-11T18:35:22.928Z,2.13
2023-05-11T18:38:11.073Z,1.88
2023-05-11T18:40:58.665Z,2.35
2023-05-11T18:43:48.267Z,1.90
2023-05-11T18:46:37.091Z,1.95
2023-05-11T18:49:24.740Z,2.20
2023-05-11T18:52:12.626Z,1.90
2023-05-11T18:55:00.442Z,2.17
2023-05-11T18:57:47.686Z,1.85
2023-05-11T19:00:37.459Z,1.90
2023-05-11T19:03:26.558Z,2.20
2023-05-11T19:06:14.491Z,2.13
2023-05-11T19:09:01.930Z,1.88
2023-05-11T19:11:49.648Z,2.25
2023-05-11T19:14:37.475Z,2.28
2023-05-11T19:17:24.844Z,1.90
2023-05-11T19:20:13.859Z,2.55
2023-05-11T19:23:01.196Z,2.40
2023-05-11T19:25:48.690Z,2.40
2023-05-11T19:28:36.115Z,2.42
2023-05-11T19:31:25.161Z,2.10
2023-05-11T19:34:12.598Z,2.35
2023-05-11T19:37:02.043Z,2.08
2023-05-11T19:39:49.800Z,2.42
2023-05-11T19:42:39.725Z,2.10
2023-05-11T19:45:31.293Z,2.08
2023-05-11T19:48:19.033Z,2.33
2023-05-11T19:51:07.455Z,2.47
2023-05-11T19:53:56.419Z,2.25
2023-05-11T19:56:44.234Z,2.22
2023-05-11T19:59:33.348Z,2.70
2023-05-11T20:02:20.777Z,2.35
2023-05-11T20:05:08.645Z,2.30
2023-05-11T20:07:56.056Z,2.78
2023-05-11T20:10:44.891Z,2.50
2023-05-11T20:13:34.260Z,2.67
2023-05-11T20:16:21.923Z,2.80
2023-05-11T20:19:10.284Z,2.58
2023-05-11T20:21:58.472Z,2.47
2023-05-11T20:24:45.851Z,2.70
2023-05-11T20:27:35.227Z,2.45
2023-05-11T20:30:22.738Z,2.45
2023-05-11T20:36:00.602Z,2.50
2023-05-11T20:38:48.496Z,2.40
2023-05-11T20:41:35.743Z,2.70
2023-05-11T20:44:24.518Z,2.28
2023-05-11T20:47:12.240Z,2.53
2023-05-11T20:49:59.832Z,2.63
2023-05-11T20:52:47.472Z,2.45
2023-05-11T20:55:35.542Z,2.33
2023-05-11T20:58:23.240Z,2.50
2023-05-11T21:01:12.088Z,2.58
2023-05-11T21:03:59.680Z,2.65
2023-05-11T21:06:47.006Z,2.78
2023-05-11T21:09:34.464Z,2.50
2023-05-11T21:12:22.290Z,2.70
2023-05-11T21:15:10.170Z,2.50
2023-05-11T21:17:59.465Z,2.40
2023-05-11T21:20:47.227Z,2.65
2023-05-11T21:23:34.685Z,2.90
2023-05-11T21:26:22.156Z,2.65
2023-05-11T21:29:12.102Z,2.53
2023-05-11T21:32:00.030Z,2.65
2023-05-11T21:34:49.046Z,2.60
2023-05-11T21:37:36.729Z,2.65
2023-05-11T21:40:24.432Z,2.58
2023-05-11T21:43:13.850Z,2.78
2023-05-11T21:46:01.874Z,2.70
2023-05-11T21:48:49.544Z,2.80
2023-05-11T21:51:38.344Z,3.20
2023-05-11T21:54:26.149Z,2.75
2023-05-11T21:57:13.850Z,3.85
2023-05-11T22:00:01.231Z,2.90
2023-05-11T22:02:48.737Z,3.22
2023-05-11T22:05:36.487Z,2.80
2023-05-11T22:08:25.219Z,2.70
2023-05-11T22:11:12.958Z,3.10
2023-05-11T22:14:00.244Z,3.10
2023-05-11T22:16:48.275Z,2.97
2023-05-11T22:19:36.247Z,2.92
2023-05-11T22:22:23.799Z,3.60
2023-05-11T22:25:13.040Z,3.03
2023-05-11T22:28:00.740Z,2.90
2023-05-11T22:30:48.369Z,3.35
2023-05-11T22:33:35.694Z,2.83
2023-05-11T22:36:23.242Z,3.30
2023-05-11T22:39:12.025Z,3.22
2023-05-11T22:42:00.917Z,3.33
2023-05-11T22:44:48.394Z,3.00
2023-05-11T22:47:35.850Z,3.03
2023-05-11T22:50:23.391Z,3.20
2023-05-11T22:53:11.106Z,3.10
2023-05-11T22:55:58.671Z,3.08
2023-05-11T22:58:47.772Z,3.17
2023-05-11T23:01:35.680Z,3.22
2023-05-11T23:04:23.484Z,3.28
2023-05-11T23:07:12.724Z,3.60
2023-05-11T23:10:00.516Z,3.33
2023-05-11T23:12:47.868Z,3.15
2023-05-11T23:15:36.925Z,3.53
2023-05-11T23:18:24.639Z,3.20
2023-05-11T23:21:12.671Z,3.50
2023-05-11T23:24:00.173Z,3.20
2023-05-11T23:26:47.490Z,3.97
2023-05-11T23:29:35.223Z,3.55
2023-05-11T23:32:24.153Z,3.05
2023-05-11T23:35:11.889Z,2.83
2023-05-11T23:37:59.616Z,3.67
2023-05-11T23:40:47.233Z,3.30
2023-05-11T23:43:34.698Z,3.75
2023-05-11T23:46:22.028Z,3.00
2023-05-11T23:49:10.692Z,3.67
2023-05-11T23:51:58.629Z,3.60
2023-05-11T23:54:46.258Z,3.45
2023-05-11T23:57:33.778Z,3.45
